createdAt,value
2018-07-26T00:03:48.830Z,99.90
2018-07-26T00:06:23.182Z,99.90
2018-07-26T00:09:32.632Z,99.90
2018-07-26T00:21:08.723Z,99.90
2018-07-26T00:29:30.377Z,99.90
2018-07-26T00:32:04.828Z,99.90
2018-07-26T00:37:24.592Z,99.90
2018-07-26T00:40:00.033Z,99.90
2018-07-26T00:42:37.579Z,99.90
2018-07-26T00:45:07.766Z,99.90
2018-07-26T00:47:53.716Z,99.90
2018-07-26T00:58:41.703Z,99.90
2018-07-26T01:04:24.437Z,99.90
2018-07-26T01:18:05.058Z,99.90
2018-07-26T01:20:35.075Z,99.90
2018-07-26T01:53:26.211Z,99.90
2018-07-26T01:55:55.709Z,99.90
2018-07-26T01:58:24.454Z,99.90
2018-07-26T02:16:18.124Z,99.90
2018-07-26T02:18:59.222Z,99.90
2018-07-26T02:21:30.168Z,99.90
2018-07-26T02:24:02.557Z,99.90
2018-07-26T02:26:36.861Z,99.90
2018-07-26T02:36:45.758Z,99.90
2018-07-26T02:44:17.742Z,99.90
2018-07-26T02:53:14.893Z,99.90
2018-07-26T02:58:46.806Z,99.90
2018-07-26T03:01:21.430Z,99.90
2018-07-26T03:03:52.784Z,99.90
2018-07-26T03:06:41.505Z,99.90
2018-07-26T03:12:18.340Z,99.90
2018-07-26T03:14:47.931Z,99.90
2018-07-26T03:17:24.050Z,99.90
2018-07-26T03:29:30.012Z,99.90
2018-07-26T03:32:19.179Z,99.90
2018-07-26T03:35:00.469Z,99.90
2018-07-26T03:44:33.052Z,99.90
2018-07-26T03:58:31.910Z,99.90
2018-07-26T04:04:22.693Z,99.90
2018-07-26T04:12:39.556Z,99.90
2018-07-26T04:15:08.243Z,99.90
2018-07-26T04:17:36.990Z,99.90
2018-07-26T04:20:05.644Z,99.90
2018-07-26T04:22:34.233Z,99.90
2018-07-26T04:25:12.101Z,99.90
2018-07-26T04:27:55.937Z,99.90
2018-07-26T04:30:25.859Z,99.90
2018-07-26T04:32:54.769Z,99.90
2018-07-26T04:35:23.515Z,99.90
2018-07-26T04:37:52.104Z,99.90
2018-07-26T04:40:23.110Z,99.90
2018-07-26T04:42:53.106Z,99.90
2018-07-26T04:45:21.913Z,99.90
2018-07-26T04:47:50.560Z,99.90
2018-07-26T04:50:19.383Z,99.90
2018-07-26T04:52:49.179Z,99.90
2018-07-26T04:55:19.405Z,99.90
2018-07-26T04:57:48.138Z,99.90
2018-07-26T05:00:16.701Z,99.90
2018-07-26T05:02:45.650Z,99.90
2018-07-26T05:05:21.872Z,99.90
2018-07-26T05:07:51.939Z,99.90
2018-07-26T05:10:21.252Z,99.90
2018-07-26T05:12:56.444Z,99.90
2018-07-26T05:51:42.608Z,99.90
2018-07-26T05:54:11.142Z,99.90
2018-07-26T05:56:39.834Z,99.90
2018-07-26T05:59:08.342Z,99.90
2018-07-26T06:01:36.992Z,99.90
2018-07-26T06:04:05.896Z,99.90
2018-07-26T06:06:34.454Z,99.90
2018-07-26T06:09:07.034Z,99.90
2018-07-26T06:11:35.619Z,99.90
2018-07-26T06:14:04.601Z,99.90
2018-07-26T06:16:33.194Z,99.90
2018-07-26T06:19:01.730Z,99.90
2018-07-26T06:21:30.340Z,99.90
2018-07-26T06:23:58.835Z,99.90
2018-07-26T06:26:27.431Z,99.90
2018-07-26T06:28:55.897Z,99.90
2018-07-26T06:31:24.506Z,99.90
2018-07-26T06:33:53.154Z,99.90
2018-07-26T06:36:21.701Z,99.80
2018-07-26T06:38:50.239Z,99.30
2018-07-26T06:41:18.827Z,96.90
2018-07-26T06:43:47.355Z,93.80
2018-07-26T06:46:15.959Z,92.50
2018-07-26T06:48:44.694Z,91.80
2018-07-26T06:51:13.247Z,90.90
2018-07-26T06:53:41.783Z,89.00
2018-07-26T06:56:10.312Z,85.50
2018-07-26T06:58:38.905Z,83.90
2018-07-26T07:01:07.523Z,82.30
2018-07-26T07:03:36.364Z,80.00
2018-07-26T07:06:04.927Z,76.90
2018-07-26T07:08:33.532Z,74.20
2018-07-26T07:11:02.133Z,71.60
2018-07-26T07:13:30.711Z,69.50
2018-07-26T07:15:59.223Z,68.00
2018-07-26T07:18:27.915Z,64.10
2018-07-26T07:20:56.535Z,61.20
2018-07-26T07:23:25.224Z,57.60
2018-07-26T07:25:53.990Z,54.80
2018-07-26T07:28:22.857Z,52.10
2018-07-26T07:30:51.439Z,49.30
2018-07-26T07:33:19.985Z,47.00
2018-07-26T07:35:48.539Z,45.80
2018-07-26T07:38:17.473Z,44.40
2018-07-26T07:40:46.033Z,43.20
2018-07-26T07:43:14.647Z,42.10
2018-07-26T07:45:43.243Z,41.20
2018-07-26T07:48:11.785Z,40.20
2018-07-26T07:50:40.719Z,39.90
2018-07-26T07:53:09.373Z,39.20
2018-07-26T07:55:38.683Z,39.60
2018-07-26T07:58:07.846Z,38.90
2018-07-26T08:00:37.301Z,38.20
2018-07-26T08:03:06.165Z,37.40
2018-07-26T08:05:34.822Z,37.70
2018-07-26T08:08:03.402Z,37.50
2018-07-26T08:10:31.978Z,36.60
2018-07-26T08:13:00.533Z,35.50
2018-07-26T08:15:29.640Z,34.50
2018-07-26T08:17:58.774Z,33.90
2018-07-26T08:20:27.724Z,33.10
2018-07-26T09:16:57.395Z,28.30
2018-07-26T09:35:00.199Z,26.80
2018-07-26T09:41:33.621Z,25.20
2018-07-26T09:45:17.709Z,24.80
2018-07-26T09:57:56.559Z,22.80
2018-07-26T10:05:26.231Z,22.70
2018-07-26T10:17:10.115Z,23.30
2018-07-26T10:28:36.242Z,23.00
2018-07-26T10:31:04.888Z,23.90
2018-07-26T10:33:33.411Z,22.20
2018-07-26T10:36:02.151Z,21.70
2018-07-26T10:38:30.702Z,21.30
2018-07-26T10:40:59.191Z,20.60
2018-07-26T10:43:28.004Z,20.30
2018-07-26T10:45:56.633Z,20.20
2018-07-26T10:48:25.194Z,21.60
2018-07-26T10:50:53.760Z,22.50
2018-07-26T10:53:22.240Z,22.10
2018-07-26T10:55:50.856Z,21.70
2018-07-26T10:58:19.781Z,21.00
2018-07-26T11:00:48.328Z,20.70
2018-07-26T11:14:09.713Z,22.10
2018-07-26T11:16:38.594Z,22.10
2018-07-26T11:19:07.269Z,21.90
2018-07-26T11:21:35.859Z,21.70
2018-07-26T11:24:04.721Z,20.90
2018-07-26T11:26:33.255Z,20.40
2018-07-26T11:29:01.984Z,20.00
2018-07-26T11:31:30.907Z,19.70
2018-07-26T11:33:59.497Z,19.40
2018-07-26T11:36:28.133Z,19.30
2018-07-26T11:38:56.753Z,18.60
2018-07-26T11:41:25.343Z,18.20
2018-07-26T11:43:54.024Z,18.00
2018-07-26T11:46:22.937Z,18.50
2018-07-26T11:48:51.448Z,18.90
2018-07-26T11:51:20.921Z,18.60
2018-07-26T11:53:49.361Z,18.80
2018-07-26T11:56:18.135Z,19.10
2018-07-26T11:58:46.704Z,19.80
2018-07-26T12:01:15.446Z,20.70
2018-07-26T12:03:43.979Z,20.60
2018-07-26T12:06:12.647Z,19.60
2018-07-26T12:08:41.509Z,19.40
2018-07-26T12:11:10.077Z,19.30
2018-07-26T12:21:01.969Z,19.00
2018-07-26T12:36:33.972Z,18.60
2018-07-26T12:44:14.688Z,18.00
2018-07-26T12:49:37.789Z,19.50
2018-07-26T12:52:07.450Z,20.70
2018-07-26T12:54:46.583Z,20.40
2018-07-26T12:57:15.263Z,20.00
2018-07-26T12:59:44.390Z,20.10
2018-07-26T13:02:12.969Z,19.50
2018-07-26T13:04:41.582Z,19.30
2018-07-26T13:07:10.403Z,19.30
2018-07-26T13:09:40.324Z,19.30
2018-07-26T13:12:10.780Z,19.80
2018-07-26T13:16:55.564Z,20.80
2018-07-26T13:19:24.242Z,20.70
2018-07-26T13:21:52.996Z,19.70
2018-07-26T13:24:22.617Z,18.60
2018-07-26T13:26:52.039Z,18.30
2018-07-26T13:29:22.239Z,17.90
2018-07-26T13:31:51.087Z,17.70
2018-07-26T13:34:19.776Z,17.70
2018-07-26T13:36:49.624Z,17.70
2018-07-26T13:39:23.373Z,17.40
2018-07-26T13:41:52.087Z,17.10
2018-07-26T13:44:21.054Z,16.90
2018-07-26T13:46:52.243Z,17.00
2018-07-26T13:49:20.801Z,17.20
2018-07-26T13:51:49.337Z,18.00
2018-07-26T13:54:18.335Z,18.70
2018-07-26T13:56:48.075Z,19.60
2018-07-26T13:59:17.213Z,19.60
2018-07-26T14:01:46.050Z,20.40
2018-07-26T14:04:14.696Z,21.10
2018-07-26T14:06:51.404Z,22.10
2018-07-26T14:09:19.929Z,22.40
2018-07-26T14:11:49.961Z,23.10
2018-07-26T14:46:03.857Z,25.10
2018-07-26T15:07:50.639Z,24.60
2018-07-26T15:10:19.220Z,24.50
2018-07-26T15:12:48.308Z,24.90
2018-07-26T15:15:17.217Z,24.40
2018-07-26T15:17:59.114Z,24.70
2018-07-26T15:20:45.774Z,24.90
2018-07-26T15:23:17.248Z,25.80
2018-07-26T15:25:47.833Z,25.00
2018-07-26T15:28:17.319Z,24.90
2018-07-26T15:31:17.089Z,25.30
2018-07-26T15:38:35.473Z,25.20
2018-07-26T15:41:08.761Z,25.40
2018-07-26T15:46:15.882Z,26.10
2018-07-26T15:48:46.747Z,26.30
2018-07-26T15:54:13.560Z,26.50
2018-07-26T15:56:42.713Z,26.50
2018-07-26T15:59:18.892Z,26.70
2018-07-26T16:01:56.482Z,26.30
2018-07-26T16:04:25.179Z,25.90
2018-07-26T16:06:59.135Z,25.60
2018-07-26T16:09:46.707Z,25.80
2018-07-26T16:12:32.384Z,26.10
2018-07-26T16:17:44.258Z,26.20
2018-07-26T16:20:15.453Z,26.10
2018-07-26T16:22:51.046Z,25.60
2018-07-26T16:25:26.417Z,25.70
2018-07-26T16:34:06.371Z,26.00
2018-07-26T16:59:56.984Z,26.10
2018-07-26T17:02:25.807Z,27.30
2018-07-26T17:04:57.237Z,26.80
2018-07-26T17:08:04.229Z,27.10
2018-07-26T17:10:49.313Z,26.40
2018-07-26T17:14:08.807Z,26.30
2018-07-26T17:16:47.441Z,26.30
2018-07-26T17:19:21.082Z,26.80
2018-07-26T17:21:50.334Z,27.20
2018-07-26T17:39:53.084Z,27.50
2018-07-26T17:52:21.255Z,28.60
2018-07-26T17:54:50.044Z,29.10
2018-07-26T18:03:07.565Z,29.90
2018-07-26T18:21:55.617Z,31.60
2018-07-26T18:24:25.661Z,31.90
2018-07-26T18:26:59.337Z,32.00
2018-07-26T18:36:10.425Z,33.90
2018-07-26T18:39:14.752Z,35.00
2018-07-26T18:44:43.215Z,36.00
2018-07-26T18:48:00.562Z,36.80
2018-07-26T18:52:51.517Z,37.60
2018-07-26T18:55:23.586Z,38.40
2018-07-26T18:57:53.614Z,39.70
2018-07-26T19:03:21.454Z,40.50
2018-07-26T19:05:56.796Z,41.00
2018-07-26T19:08:27.172Z,42.00
2018-07-26T19:11:16.160Z,42.10
2018-07-26T19:14:16.017Z,42.70
2018-07-26T19:21:23.582Z,42.70
2018-07-26T19:34:36.926Z,44.50
2018-07-26T19:37:06.693Z,45.90
2018-07-26T19:44:11.180Z,47.00
2018-07-26T19:47:02.366Z,47.90
2018-07-26T19:49:36.648Z,47.60
2018-07-26T19:52:39.026Z,47.70
2018-07-26T20:05:47.902Z,47.50
2018-07-26T20:16:13.568Z,47.40
2018-07-26T20:18:50.694Z,48.30
2018-07-26T20:24:07.372Z,48.80
2018-07-26T20:26:43.237Z,49.70
2018-07-26T20:29:23.453Z,50.10
2018-07-26T20:31:54.597Z,50.20
2018-07-26T20:34:25.542Z,50.50
2018-07-26T20:37:02.427Z,50.40
2018-07-26T20:42:54.293Z,50.20
2018-07-26T20:47:20.898Z,50.60
2018-07-26T20:50:38.276Z,51.90
2018-07-26T20:56:58.912Z,53.20
2018-07-26T20:59:39.950Z,53.80
2018-07-26T21:02:13.946Z,54.10
2018-07-26T21:04:44.515Z,53.90
2018-07-26T21:07:14.563Z,54.10
2018-07-26T21:09:44.901Z,54.00
2018-07-26T21:12:32.337Z,54.30
2018-07-26T21:15:28.482Z,55.10
2018-07-26T21:18:00.032Z,55.90
2018-07-26T21:32:49.607Z,56.20
2018-07-26T21:35:18.218Z,56.80
2018-07-26T21:37:49.746Z,57.30
2018-07-26T21:44:27.350Z,57.70
2018-07-26T21:47:05.722Z,57.50
2018-07-26T21:49:52.368Z,57.70
2018-07-26T21:54:42.147Z,57.90
2018-07-26T21:57:20.932Z,58.10
2018-07-26T21:59:53.904Z,58.70
2018-07-26T22:02:23.337Z,58.60
2018-07-26T22:04:59.521Z,58.70
2018-07-26T22:07:34.388Z,58.90
2018-07-26T22:10:08.278Z,59.10
2018-07-26T22:12:37.244Z,59.30
2018-07-26T22:15:12.738Z,59.80
2018-07-26T22:18:07.624Z,59.80
2018-07-26T22:27:36.746Z,61.20
2018-07-26T22:30:33.986Z,62.00
2018-07-26T22:37:35.050Z,63.50
2018-07-26T22:40:40.777Z,65.00
2018-07-26T22:44:25.181Z,65.90
2018-07-26T22:46:55.724Z,67.50
2018-07-26T22:49:27.873Z,68.90
2018-07-26T22:51:58.699Z,70.20
2018-07-26T22:54:33.969Z,72.20
2018-07-26T22:57:03.057Z,73.70
2018-07-26T23:00:54.305Z,75.40
2018-07-26T23:03:23.458Z,77.60
2018-07-26T23:06:39.831Z,82.30
2018-07-26T23:09:11.137Z,83.70
2018-07-26T23:14:58.687Z,88.70
2018-07-26T23:27:30.343Z,91.10
2018-07-26T23:41:52.148Z,96.00
2018-07-26T23:44:48.896Z,96.00
2018-07-26T23:47:20.307Z,99.90
2018-07-26T23:50:24.616Z,99.90
